createdAt,value
2023-03-06T00:00:37.734Z,96210.50
2023-03-06T00:03:05.093Z,96202.63
2023-03-06T00:05:31.944Z,96201.19
2023-03-06T00:07:58.544Z,96208.09
2023-03-06T00:10:25.137Z,96211.31
2023-03-06T00:12:52.210Z,96206.78
2023-03-06T00:15:18.666Z,96213.03
2023-03-06T00:17:45.211Z,96214.47
2023-03-06T00:20:11.989Z,96202.13
2023-03-06T00:22:38.413Z,96212.25
2023-03-06T00:25:05.153Z,96210.06
2023-03-06T00:27:31.589Z,96216.19
2023-03-06T00:29:58.230Z,96210.91
2023-03-06T00:32:24.857Z,96200.97
2023-03-06T00:34:51.571Z,96201.97
2023-03-06T00:37:18.023Z,96204.81
2023-03-06T00:39:44.477Z,96195.91
2023-03-06T00:42:10.876Z,96204.63
2023-03-06T00:44:37.328Z,96207.47
2023-03-06T00:47:03.696Z,96211.50
2023-03-06T00:49:30.095Z,96202.41
2023-03-06T00:51:56.538Z,96205.84
2023-03-06T00:54:22.953Z,96196.72
2023-03-06T00:56:49.339Z,96202.97
2023-03-06T00:59:15.739Z,96190.25
2023-03-06T01:01:42.393Z,96194.06
2023-03-06T01:04:08.857Z,96185.13
2023-03-06T01:06:35.270Z,96190.22
2023-03-06T01:09:01.661Z,96181.31
2023-03-06T01:11:28.083Z,96171.41
2023-03-06T01:13:54.469Z,96177.88
2023-03-06T01:16:20.938Z,96175.84
2023-03-06T01:18:47.342Z,96173.03
2023-03-06T01:21:13.777Z,96164.13
2023-03-06T01:23:40.196Z,96166.13
2023-03-06T01:26:06.627Z,96162.31
2023-03-06T01:28:33.093Z,96165.56
2023-03-06T01:30:59.462Z,96167.16
2023-03-06T01:33:25.846Z,96158.84
2023-03-06T01:35:52.248Z,96158.47
2023-03-06T01:38:18.633Z,96158.25
2023-03-06T01:40:45.033Z,96150.19
2023-03-06T01:43:11.415Z,96140.88
2023-03-06T01:45:37.835Z,96144.50
2023-03-06T01:48:04.246Z,96145.50
2023-03-06T01:50:30.634Z,96147.72
2023-03-06T01:52:57.029Z,96149.75
2023-03-06T01:55:23.636Z,96145.06
2023-03-06T01:57:50.019Z,96138.84
2023-03-06T02:00:16.398Z,96145.09
2023-03-06T02:02:42.939Z,96134.56
2023-03-06T02:05:09.397Z,96137.41
2023-03-06T02:07:35.805Z,96128.69
2023-03-06T02:10:02.236Z,96125.28
2023-03-06T02:12:28.691Z,96120.59
2023-03-06T02:14:55.065Z,96118.16
2023-03-06T02:17:21.491Z,96117.97
2023-03-06T02:19:47.971Z,96125.47
2023-03-06T02:22:14.397Z,96117.53
2023-03-06T02:24:40.780Z,96120.81
2023-03-06T02:27:07.162Z,96111.25
2023-03-06T02:29:33.561Z,96116.72
2023-03-06T02:32:00.045Z,96112.84
2023-03-06T02:34:26.474Z,96112.22
2023-03-06T02:36:52.896Z,96113.84
2023-03-06T02:39:19.259Z,96107.16
2023-03-06T02:41:45.661Z,96115.97
2023-03-06T02:44:12.057Z,96121.41
2023-03-06T02:46:38.448Z,96110.50
2023-03-06T02:49:04.817Z,96113.72
2023-03-06T02:51:31.179Z,96110.50
2023-03-06T02:53:57.608Z,96104.97
2023-03-06T02:56:24.043Z,96104.59
2023-03-06T02:58:50.450Z,96095.69
2023-03-06T03:01:16.867Z,96095.69
2023-03-06T03:03:43.290Z,96099.91
2023-03-06T03:06:09.664Z,96094.72
2023-03-06T03:08:36.105Z,96093.25
2023-03-06T03:11:02.505Z,96101.31
2023-03-06T03:13:29.064Z,96097.25
2023-03-06T03:15:55.555Z,96088.97
2023-03-06T03:18:21.979Z,96083.53
2023-03-06T03:20:48.395Z,96079.31
2023-03-06T03:23:14.951Z,96087.56
2023-03-06T03:25:41.377Z,96088.34
2023-03-06T03:28:07.790Z,96090.94
2023-03-06T03:30:34.186Z,96090.50
2023-03-06T03:33:00.568Z,96083.00
2023-03-06T03:35:26.991Z,96076.59
2023-03-06T03:37:53.443Z,96077.56
2023-03-06T03:40:20.498Z,96083.28
2023-03-06T03:42:46.933Z,96088.16
2023-03-06T03:45:13.331Z,96089.63
2023-03-06T03:47:39.722Z,96086.00
2023-03-06T03:50:06.157Z,96083.19
2023-03-06T03:52:32.530Z,96083.78
2023-03-06T03:54:58.936Z,96078.13
2023-03-06T03:57:25.431Z,96081.31
2023-03-06T03:59:51.861Z,96092.84
2023-03-06T04:02:18.396Z,96082.38
2023-03-06T04:04:44.947Z,96073.88
2023-03-06T04:07:11.366Z,96071.44
2023-03-06T04:09:37.757Z,96074.88
2023-03-06T04:12:04.106Z,96078.72
2023-03-06T04:14:30.519Z,96079.72
2023-03-06T04:16:56.921Z,96076.50
2023-03-06T04:19:23.387Z,96072.63
2023-03-06T04:21:49.782Z,96065.00
2023-03-06T04:24:16.277Z,96074.47
2023-03-06T04:26:42.724Z,96073.25
2023-03-06T04:29:09.181Z,96072.66
2023-03-06T04:31:35.655Z,96078.09
2023-03-06T04:34:04.050Z,96069.34
2023-03-06T04:36:30.495Z,96070.50
2023-03-06T04:38:56.929Z,96059.25
2023-03-06T04:41:23.367Z,96066.56
2023-03-06T04:43:49.890Z,96065.31
2023-03-06T04:46:16.314Z,96066.09
2023-03-06T04:48:42.722Z,96059.41
2023-03-06T04:51:09.098Z,96053.56
2023-03-06T04:53:35.482Z,96056.66
2023-03-06T04:56:02.056Z,96058.50
2023-03-06T04:58:28.483Z,96053.63
2023-03-06T05:00:54.892Z,96058.69
2023-03-06T05:03:21.315Z,96058.50
2023-03-06T05:05:47.720Z,96054.03
2023-03-06T05:08:14.137Z,96055.06
2023-03-06T05:10:40.516Z,96066.59
2023-03-06T05:13:06.949Z,96055.69
2023-03-06T05:15:33.431Z,96062.94
2023-03-06T05:17:59.821Z,96057.47
2023-03-06T05:20:26.327Z,96063.75
2023-03-06T05:22:52.742Z,96061.53
2023-03-06T05:25:19.196Z,96060.94
2023-03-06T05:27:45.586Z,96069.03
2023-03-06T05:30:12.100Z,96067.59
2023-03-06T05:32:38.569Z,96060.53
2023-03-06T05:35:04.966Z,96062.72
2023-03-06T05:37:31.364Z,96064.53
2023-03-06T05:39:57.945Z,96060.28
2023-03-06T05:42:24.353Z,96064.50
2023-03-06T05:44:50.735Z,96069.28
2023-03-06T05:47:17.154Z,96064.44
2023-03-06T05:49:43.617Z,96063.22
2023-03-06T05:52:10.049Z,96072.13
2023-03-06T05:54:36.609Z,96075.34
2023-03-06T05:57:06.016Z,96070.88
2023-03-06T05:59:32.402Z,96062.75
2023-03-06T06:01:58.844Z,96065.50
2023-03-06T06:04:25.274Z,96059.56
2023-03-06T06:06:51.765Z,96073.47
2023-03-06T06:09:18.217Z,96068.31
2023-03-06T06:11:44.674Z,96077.41
2023-03-06T06:14:11.266Z,96073.84
2023-03-06T06:16:37.773Z,96069.91
2023-03-06T06:19:04.195Z,96072.84
2023-03-06T06:21:30.656Z,96077.50
2023-03-06T06:23:57.122Z,96076.19
2023-03-06T06:26:23.566Z,96076.91
2023-03-06T06:28:49.940Z,96072.25
2023-03-06T06:31:16.426Z,96071.41
2023-03-06T06:33:43.172Z,96073.19
2023-03-06T06:36:09.595Z,96081.19
2023-03-06T06:38:35.964Z,96088.44
2023-03-06T06:41:31.080Z,96084.84
2023-03-06T06:43:48.782Z,96087.59
2023-03-06T06:46:53.353Z,96083.81
2023-03-06T06:49:02.797Z,96079.03
2023-03-06T06:51:29.202Z,96085.69
2023-03-06T06:53:55.597Z,96084.31
2023-03-06T06:56:22.053Z,96089.44
2023-03-06T06:58:48.637Z,96087.84
2023-03-06T07:01:15.046Z,96086.50
2023-03-06T07:03:41.567Z,96092.44
2023-03-06T07:06:08.003Z,96094.50
2023-03-06T07:08:34.434Z,96095.66
2023-03-06T07:11:00.834Z,96092.25
2023-03-06T07:13:27.258Z,96086.78
2023-03-06T07:15:53.716Z,96091.69
2023-03-06T07:18:20.179Z,96094.88
2023-03-06T07:20:46.599Z,96083.31
2023-03-06T07:23:13.025Z,96088.94
2023-03-06T07:25:39.411Z,96087.06
2023-03-06T07:28:05.985Z,96083.69
2023-03-06T07:30:32.363Z,96084.34
2023-03-06T07:32:58.773Z,96079.91
2023-03-06T07:35:25.171Z,96087.28
2023-03-06T07:37:51.563Z,96090.59
2023-03-06T07:40:17.986Z,96088.09
2023-03-06T07:42:44.402Z,96096.63
2023-03-06T07:45:10.811Z,96085.06
2023-03-06T07:47:37.216Z,96089.06
2023-03-06T07:50:03.607Z,96089.81
2023-03-06T07:52:30.002Z,96092.78
2023-03-06T07:54:56.420Z,96087.69
2023-03-06T07:57:22.817Z,96089.34
2023-03-06T07:59:49.219Z,96095.81
2023-03-06T08:02:15.712Z,96092.03
2023-03-06T08:04:42.211Z,96092.84
2023-03-06T08:07:08.765Z,96092.56
2023-03-06T08:09:35.166Z,96086.31
2023-03-06T08:12:01.578Z,96083.94
2023-03-06T08:14:28.067Z,96085.97
2023-03-06T08:16:54.469Z,96091.34
2023-03-06T08:19:20.931Z,96091.47
2023-03-06T08:21:47.314Z,96094.75
2023-03-06T08:24:13.717Z,96096.34
2023-03-06T08:26:40.175Z,96090.25
2023-03-06T08:29:06.568Z,96091.38
2023-03-06T08:31:33.142Z,96093.97
2023-03-06T08:33:59.593Z,96095.63
2023-03-06T08:36:25.982Z,96099.22
2023-03-06T08:38:52.419Z,96097.13
2023-03-06T08:41:20.242Z,96101.56
2023-03-06T08:43:46.737Z,96099.53
2023-03-06T08:46:13.201Z,96093.06
2023-03-06T08:48:39.657Z,96102.06
2023-03-06T08:51:06.065Z,96105.63
2023-03-06T08:53:42.731Z,96102.56
2023-03-06T08:56:09.906Z,96109.78
2023-03-06T08:58:36.317Z,96108.56
2023-03-06T09:01:02.844Z,96103.22
2023-03-06T09:03:29.308Z,96102.84
2023-03-06T09:05:55.729Z,96106.53
2023-03-06T09:08:22.094Z,96109.38
2023-03-06T09:10:48.839Z,96102.81
2023-03-06T09:13:15.251Z,96104.72
2023-03-06T09:15:41.772Z,96097.38
2023-03-06T09:18:08.232Z,96106.81
2023-03-06T09:20:34.685Z,96111.91
2023-03-06T09:23:01.090Z,96104.09
2023-03-06T09:25:27.464Z,96104.66
2023-03-06T09:28:10.120Z,96107.63
2023-03-06T09:30:37.107Z,96099.22
2023-03-06T09:33:03.614Z,96095.16
2023-03-06T09:35:30.178Z,96093.03
2023-03-06T09:37:56.649Z,96095.50
2023-03-06T09:40:23.145Z,96082.88
2023-03-06T09:42:49.573Z,96073.94
2023-03-06T09:45:16.047Z,96087.75
2023-03-06T09:47:42.430Z,96080.81
2023-03-06T09:50:08.946Z,96082.09
2023-03-06T09:52:35.377Z,96086.78
2023-03-06T09:55:01.794Z,96079.50
2023-03-06T09:57:28.202Z,96079.59
2023-03-06T09:59:54.625Z,96078.41
2023-03-06T10:02:21.158Z,96081.13
2023-03-06T10:04:47.754Z,96082.53
2023-03-06T10:07:14.201Z,96076.63
2023-03-06T10:09:40.656Z,96075.28
2023-03-06T10:12:07.291Z,96074.09
2023-03-06T10:14:33.758Z,96069.81
2023-03-06T10:17:00.233Z,96075.03
2023-03-06T10:19:26.722Z,96073.03
2023-03-06T10:21:53.135Z,96067.50
2023-03-06T10:24:19.539Z,96063.94
2023-03-06T10:26:46.142Z,96058.59
2023-03-06T10:29:12.648Z,96066.63
2023-03-06T10:31:39.100Z,96072.16
2023-03-06T10:34:05.479Z,96067.22
2023-03-06T10:36:31.877Z,96064.09
2023-03-06T10:38:58.244Z,96063.56
2023-03-06T10:41:24.730Z,96065.16
2023-03-06T10:43:51.161Z,96066.75
2023-03-06T10:46:17.780Z,96061.56
2023-03-06T10:48:44.214Z,96058.00
2023-03-06T10:51:18.055Z,96062.47
2023-03-06T10:53:45.091Z,96060.59
2023-03-06T10:56:11.525Z,96056.00
2023-03-06T10:58:39.155Z,96051.09
2023-03-06T11:01:05.625Z,96045.38
2023-03-06T11:03:32.044Z,96050.72
2023-03-06T11:05:58.594Z,96046.75
2023-03-06T11:08:25.121Z,96040.78
2023-03-06T11:10:51.526Z,96047.00
2023-03-06T11:13:17.950Z,96033.53
2023-03-06T11:15:44.468Z,96039.44
2023-03-06T11:18:10.917Z,96032.94
2023-03-06T11:20:50.404Z,96021.47
2023-03-06T11:23:17.207Z,96032.97
2023-03-06T11:25:43.654Z,96036.81
2023-03-06T11:28:10.160Z,96029.50
2023-03-06T11:30:36.584Z,96033.56
2023-03-06T11:33:03.013Z,96017.84
2023-03-06T11:35:30.609Z,96008.69
2023-03-06T11:37:57.002Z,96006.50
2023-03-06T11:40:23.404Z,96015.00
2023-03-06T11:42:49.828Z,96007.97
2023-03-06T11:45:16.233Z,96006.31
2023-03-06T11:47:42.794Z,96006.19
2023-03-06T11:50:09.289Z,96000.38
2023-03-06T11:52:35.757Z,95995.72
2023-03-06T11:55:02.287Z,96003.13
2023-03-06T11:57:28.729Z,95994.63
2023-03-06T11:59:55.181Z,95988.25
2023-03-06T12:02:21.631Z,95979.16
2023-03-06T12:04:48.070Z,95982.56
2023-03-06T12:07:14.517Z,95965.41
2023-03-06T12:09:40.975Z,95965.41
2023-03-06T12:12:07.463Z,95965.53
2023-03-06T12:14:33.868Z,95964.75
2023-03-06T12:17:00.308Z,95954.91
2023-03-06T12:19:26.743Z,95964.84
2023-03-06T12:21:53.141Z,95953.81
2023-03-06T12:24:19.684Z,95957.75
2023-03-06T12:26:46.084Z,95952.41
2023-03-06T12:29:12.551Z,95949.13
2023-03-06T12:31:39.006Z,95945.19
2023-03-06T12:34:05.443Z,95943.97
2023-03-06T12:36:32.054Z,95943.06
2023-03-06T12:38:58.467Z,95947.28
2023-03-06T12:41:24.917Z,95939.50
2023-03-06T12:43:51.406Z,95933.28
2023-03-06T12:46:17.896Z,95927.28
2023-03-06T12:48:44.524Z,95934.97
2023-03-06T12:51:11.002Z,95929.41
2023-03-06T12:53:37.409Z,95925.44
2023-03-06T12:56:03.932Z,95926.00
2023-03-06T12:58:30.381Z,95926.19
2023-03-06T13:01:03.538Z,95924.63
2023-03-06T13:03:30.716Z,95912.13
2023-03-06T13:05:57.306Z,95911.50
2023-03-06T13:08:23.836Z,95904.50
2023-03-06T13:10:50.532Z,95899.56
2023-03-06T13:13:16.957Z,95908.47
2023-03-06T13:15:43.405Z,95905.22
2023-03-06T13:18:09.818Z,95912.41
2023-03-06T13:20:36.302Z,95909.03
2023-03-06T13:23:02.756Z,95908.63
2023-03-06T13:25:29.215Z,95917.13
2023-03-06T13:27:55.691Z,95911.13
2023-03-06T13:30:22.130Z,95907.13
2023-03-06T13:32:48.522Z,95896.94
2023-03-06T13:35:14.922Z,95910.38
2023-03-06T13:37:41.326Z,95895.03
2023-03-06T13:40:07.764Z,95901.09
2023-03-06T13:42:34.168Z,95907.06
2023-03-06T13:45:00.612Z,95903.19
2023-03-06T13:47:26.991Z,95904.28
2023-03-06T13:49:53.398Z,95890.47
2023-03-06T13:52:19.999Z,95894.47
2023-03-06T13:54:46.420Z,95892.97
2023-03-06T13:57:12.903Z,95897.97
2023-03-06T13:59:39.345Z,95908.09
2023-03-06T14:02:05.729Z,95904.41
2023-03-06T14:04:32.271Z,95891.31
2023-03-06T14:06:58.708Z,95897.56
2023-03-06T14:09:25.176Z,95891.63
2023-03-06T14:11:51.619Z,95888.88
2023-03-06T14:14:18.073Z,95893.00
2023-03-06T14:16:50.203Z,95893.53
2023-03-06T14:19:17.031Z,95896.00
2023-03-06T14:21:43.496Z,95891.81
2023-03-06T14:24:09.884Z,95877.53
2023-03-06T14:26:36.401Z,95882.91
2023-03-06T14:29:02.829Z,95892.72
2023-03-06T14:31:29.297Z,95877.09
2023-03-06T14:33:55.768Z,95883.78
2023-03-06T14:36:22.230Z,95885.38
2023-03-06T14:38:48.680Z,95876.84
2023-03-06T14:41:15.128Z,95880.59
2023-03-06T14:43:41.555Z,95883.34
2023-03-06T14:46:08.238Z,95881.00
2023-03-06T14:48:34.645Z,95870.72
2023-03-06T14:51:01.017Z,95880.56
2023-03-06T14:53:27.411Z,95875.97
2023-03-06T14:55:53.922Z,95868.31
2023-03-06T14:58:20.442Z,95864.13
2023-03-06T15:00:46.944Z,95870.72
2023-03-06T15:03:13.365Z,95876.94
2023-03-06T15:05:39.742Z,95869.84
2023-03-06T15:08:06.182Z,95868.69
2023-03-06T15:10:32.651Z,95862.31
2023-03-06T15:12:59.052Z,95867.78
2023-03-06T15:15:25.677Z,95864.63
2023-03-06T15:17:52.054Z,95870.78
2023-03-06T15:20:18.475Z,95870.63
2023-03-06T15:22:44.852Z,95884.00
2023-03-06T15:25:11.673Z,95892.13
2023-03-06T15:27:38.127Z,95888.16
2023-03-06T15:30:04.592Z,95880.03
2023-03-06T15:32:31.070Z,95874.25
2023-03-06T15:34:57.637Z,95871.63
2023-03-06T15:37:24.397Z,95872.41
2023-03-06T15:39:50.891Z,95881.75
2023-03-06T15:42:17.276Z,95882.91
2023-03-06T15:44:43.704Z,95886.91
2023-03-06T15:47:10.139Z,95888.72
2023-03-06T15:49:36.642Z,95888.63
2023-03-06T15:52:03.109Z,95886.66
2023-03-06T15:54:31.870Z,95887.56
2023-03-06T15:56:59.270Z,95882.03
2023-03-06T15:59:25.678Z,95888.16
2023-03-06T16:01:52.495Z,95896.84
2023-03-06T16:04:19.001Z,95888.75
2023-03-06T16:06:45.683Z,95893.94
2023-03-06T16:09:12.309Z,95902.56
2023-03-06T16:11:43.959Z,95899.25
2023-03-06T16:14:11.516Z,95907.00
2023-03-06T16:16:38.018Z,95897.84
2023-03-06T16:19:06.049Z,95900.56
2023-03-06T16:21:34.321Z,95914.28
2023-03-06T16:24:01.136Z,95919.88
2023-03-06T16:26:30.145Z,95915.13
2023-03-06T16:28:56.561Z,95922.78
2023-03-06T16:31:23.110Z,95911.56
2023-03-06T16:33:49.826Z,95911.59
2023-03-06T16:36:16.301Z,95915.06
2023-03-06T16:38:43.209Z,95918.53
2023-03-06T16:41:09.761Z,95925.91
2023-03-06T16:43:36.139Z,95926.38
2023-03-06T16:46:02.764Z,95924.22
2023-03-06T16:48:29.213Z,95927.22
2023-03-06T16:50:55.624Z,95925.19
2023-03-06T16:53:22.027Z,95933.31
2023-03-06T16:55:48.550Z,95932.84
2023-03-06T16:58:14.969Z,95943.03
2023-03-06T17:00:41.624Z,95939.09
2023-03-06T17:03:08.045Z,95942.13
2023-03-06T17:05:34.689Z,95940.69
2023-03-06T17:08:01.144Z,95938.94
2023-03-06T17:10:27.542Z,95944.34
2023-03-06T17:12:54.000Z,95939.91
2023-03-06T17:15:20.427Z,95942.47
2023-03-06T17:17:46.992Z,95933.06
2023-03-06T17:20:13.402Z,95940.69
2023-03-06T17:22:39.811Z,95947.69
2023-03-06T17:25:06.220Z,95949.81
2023-03-06T17:27:32.772Z,95940.59
2023-03-06T17:29:59.466Z,95951.47
2023-03-06T17:32:26.055Z,95958.66
2023-03-06T17:34:52.452Z,95955.72
2023-03-06T17:37:18.856Z,95955.72
2023-03-06T17:39:45.385Z,95957.25
2023-03-06T17:42:11.794Z,95965.81
2023-03-06T17:44:38.190Z,95971.06
2023-03-06T17:47:04.782Z,95973.59
2023-03-06T17:49:31.390Z,95975.69
2023-03-06T17:51:57.871Z,95988.09
2023-03-06T17:54:24.261Z,95989.50
2023-03-06T17:56:50.828Z,95998.00
2023-03-06T17:59:17.215Z,95999.72
2023-03-06T18:01:43.782Z,95992.94
2023-03-06T18:04:10.196Z,95986.16
2023-03-06T18:06:36.602Z,95990.31
2023-03-06T18:09:03.189Z,95991.22
2023-03-06T18:11:29.627Z,95995.09
2023-03-06T18:13:56.065Z,95990.84
2023-03-06T18:16:22.775Z,95998.44
2023-03-06T18:18:49.289Z,95986.53
2023-03-06T18:21:15.807Z,95993.88
2023-03-06T18:23:42.227Z,96005.47
2023-03-06T18:26:09.865Z,96012.75
2023-03-06T18:28:36.349Z,96011.94
2023-03-06T18:31:02.970Z,96025.88
2023-03-06T18:33:29.546Z,96035.06
2023-03-06T18:35:56.279Z,96032.56
2023-03-06T18:38:22.910Z,96031.84
2023-03-06T18:40:49.399Z,96033.44
2023-03-06T18:43:15.848Z,96032.41
2023-03-06T18:45:42.540Z,96034.84
2023-03-06T18:48:09.165Z,96034.16
2023-03-06T18:50:35.970Z,96026.56
2023-03-06T18:53:02.497Z,96038.09
2023-03-06T18:55:30.250Z,96042.59
2023-03-06T18:57:56.775Z,96048.13
2023-03-06T19:00:23.692Z,96044.75
2023-03-06T19:02:50.111Z,96050.16
2023-03-06T19:05:16.787Z,96046.94
2023-03-06T19:07:43.596Z,96043.59
2023-03-06T19:10:10.073Z,96043.06
2023-03-06T19:12:36.628Z,96050.03
2023-03-06T19:15:03.116Z,96046.97
2023-03-06T19:17:29.494Z,96054.47
2023-03-06T19:19:55.924Z,96059.16
2023-03-06T19:22:22.376Z,96054.78
2023-03-06T19:24:48.796Z,96057.31
2023-03-06T19:27:15.320Z,96055.84
2023-03-06T19:29:41.940Z,96068.13
2023-03-06T19:32:08.457Z,96074.94
2023-03-06T19:34:37.389Z,96084.00
2023-03-06T19:37:04.042Z,96081.00
2023-03-06T19:39:30.613Z,96086.31
2023-03-06T19:41:57.031Z,96086.16
2023-03-06T19:44:23.524Z,96084.84
2023-03-06T19:46:53.182Z,96086.72
2023-03-06T19:49:19.662Z,96086.06
2023-03-06T19:51:53.392Z,96089.34
2023-03-06T19:54:20.074Z,96092.13
2023-03-06T19:56:46.627Z,96093.72
2023-03-06T19:59:15.778Z,96093.81
2023-03-06T20:01:42.254Z,96096.19
2023-03-06T20:04:08.772Z,96095.66
2023-03-06T20:06:35.546Z,96090.97
2023-03-06T20:09:02.218Z,96093.63
2023-03-06T20:11:29.015Z,96093.25
2023-03-06T20:13:55.734Z,96094.72
2023-03-06T20:16:24.897Z,96092.03
2023-03-06T20:18:51.781Z,96102.59
2023-03-06T20:21:18.672Z,96107.75
2023-03-06T20:23:45.618Z,96103.50
2023-03-06T20:26:12.082Z,96104.66
2023-03-06T20:28:39.325Z,96108.94
2023-03-06T20:31:05.946Z,96102.53
2023-03-06T20:33:33.248Z,96110.69
2023-03-06T20:36:02.664Z,96112.00
2023-03-06T20:38:29.144Z,96107.44
2023-03-06T20:40:55.991Z,96104.22
2023-03-06T20:43:22.500Z,96105.13
2023-03-06T20:45:49.243Z,96109.69
2023-03-06T20:48:16.158Z,96105.97
2023-03-06T20:50:42.879Z,96103.56
2023-03-06T20:53:09.458Z,96100.66
2023-03-06T20:55:37.643Z,96093.88
2023-03-06T20:58:08.808Z,96098.00
2023-03-06T21:00:36.181Z,96100.66
2023-03-06T21:03:02.733Z,96092.41
2023-03-06T21:05:29.538Z,96105.47
2023-03-06T21:07:56.220Z,96104.03
2023-03-06T21:10:22.630Z,96103.56
2023-03-06T21:12:54.207Z,96109.56
2023-03-06T21:15:20.590Z,96099.75
2023-03-06T21:17:47.072Z,96093.16
2023-03-06T21:20:13.986Z,96094.88
2023-03-06T21:22:40.703Z,96102.59
2023-03-06T21:25:07.174Z,96093.19
2023-03-06T21:27:33.938Z,96095.94
2023-03-06T21:30:00.359Z,96096.69
2023-03-06T21:32:26.957Z,96095.84
2023-03-06T21:34:53.585Z,96094.06
2023-03-06T21:37:20.322Z,96084.72
2023-03-06T21:39:46.742Z,96088.72
2023-03-06T21:42:16.087Z,96079.69
2023-03-06T21:44:42.903Z,96088.38
2023-03-06T21:47:09.423Z,96089.44
2023-03-06T21:49:36.310Z,96087.63
2023-03-06T21:52:02.935Z,96086.91
2023-03-06T21:54:29.423Z,96080.56
2023-03-06T21:56:57.401Z,96077.97
2023-03-06T21:59:23.843Z,96085.88
2023-03-06T22:01:50.609Z,96078.41
2023-03-06T22:04:23.146Z,96076.53
2023-03-06T22:06:49.751Z,96080.41
2023-03-06T22:09:16.975Z,96079.13
2023-03-06T22:11:43.954Z,96081.13
2023-03-06T22:14:10.640Z,96067.63
2023-03-06T22:16:37.528Z,96074.50
2023-03-06T22:19:04.265Z,96071.47
2023-03-06T22:21:30.780Z,96064.19
2023-03-06T22:23:57.552Z,96072.09
2023-03-06T22:26:24.271Z,96066.88
2023-03-06T22:28:50.896Z,96064.41
2023-03-06T22:31:17.355Z,96063.41
2023-03-06T22:33:44.260Z,96064.63
2023-03-06T22:36:11.027Z,96067.31
2023-03-06T22:38:37.551Z,96064.28
2023-03-06T22:41:06.212Z,96068.69
2023-03-06T22:43:41.460Z,96067.69
2023-03-06T22:46:07.935Z,96070.59
2023-03-06T22:48:37.722Z,96062.41
2023-03-06T22:51:04.421Z,96056.66
2023-03-06T22:53:30.859Z,96055.44
2023-03-06T22:56:01.985Z,96057.28
2023-03-06T22:58:28.509Z,96060.28
2023-03-06T23:00:54.949Z,96056.50
2023-03-06T23:03:23.749Z,96059.91
2023-03-06T23:05:50.175Z,96060.41
2023-03-06T23:08:16.683Z,96061.03
2023-03-06T23:10:43.079Z,96063.69
2023-03-06T23:13:09.591Z,96062.50
2023-03-06T23:15:36.001Z,96072.81
2023-03-06T23:18:02.504Z,96061.59
2023-03-06T23:20:28.919Z,96061.56
2023-03-06T23:22:55.665Z,96064.19
2023-03-06T23:25:22.076Z,96053.22
2023-03-06T23:27:48.483Z,96058.97
2023-03-06T23:30:14.891Z,96058.59
2023-03-06T23:32:41.357Z,96054.47
2023-03-06T23:35:07.738Z,96057.50
2023-03-06T23:37:34.134Z,96046.63
2023-03-06T23:40:00.617Z,96042.00
2023-03-06T23:42:27.061Z,96038.97
2023-03-06T23:44:53.487Z,96044.41
2023-03-06T23:47:19.883Z,96045.03
2023-03-06T23:49:46.308Z,96048.16
2023-03-06T23:52:12.718Z,96050.19
2023-03-06T23:54:39.114Z,96044.56
2023-03-06T23:57:05.549Z,96036.25
2023-03-06T23:59:31.947Z,96039.47
